sensor_id;sensor_type;location;lat;lon;timestamp;temperature;humidity
51908;DHT22;39320;53.214;6.556;2023-12-20T00:01:01;7.10;99.90
51908;DHT22;39320;53.214;6.556;2023-12-20T00:03:26;7.10;99.90
51908;DHT22;39320;53.214;6.556;2023-12-20T00:05:52;7.00;99.90
51908;DHT22;39320;53.214;6.556;2023-12-20T00:08:18;7.10;99.90
51908;DHT22;39320;53.214;6.556;2023-12-20T00:10:44;7.10;99.90
51908;DHT22;39320;53.214;6.556;2023-12-20T00:13:10;7.10;99.90
51908;DHT22;39320;53.214;6.556;2023-12-20T00:15:36;7.10;99.90
51908;DHT22;39320;53.214;6.556;2023-12-20T00:18:02;7.10;99.90
51908;DHT22;39320;53.214;6.556;2023-12-20T00:20:28;7.10;99.90
51908;DHT22;39320;53.214;6.556;2023-12-20T00:22:58;7.10;99.90
51908;DHT22;39320;53.214;6.556;2023-12-20T00:25:24;7.10;99.90
51908;DHT22;39320;53.214;6.556;2023-12-20T00:27:50;7.10;99.90
51908;DHT22;39320;53.214;6.556;2023-12-20T00:30:16;7.10;99.90
51908;DHT22;39320;53.214;6.556;2023-12-20T00:32:42;7.10;99.90
51908;DHT22;39320;53.214;6.556;2023-12-20T00:35:14;7.10;99.90
51908;DHT22;39320;53.214;6.556;2023-12-20T00:37:40;7.00;99.90
51908;DHT22;39320;53.214;6.556;2023-12-20T00:40:07;7.00;99.90
51908;DHT22;39320;53.214;6.556;2023-12-20T00:42:33;7.00;99.90
51908;DHT22;39320;53.214;6.556;2023-12-20T00:44:59;7.00;99.90
51908;DHT22;39320;53.214;6.556;2023-12-20T00:47:25;7.00;99.90
51908;DHT22;39320;53.214;6.556;2023-12-20T00:49:51;7.00;99.90
51908;DHT22;39320;53.214;6.556;2023-12-20T00:52:18;7.00;99.90
51908;DHT22;39320;53.214;6.556;2023-12-20T00:54:44;7.00;99.90
51908;DHT22;39320;53.214;6.556;2023-12-20T00:57:10;7.00;99.90
51908;DHT22;39320;53.214;6.556;2023-12-20T00:59:36;7.00;99.90
51908;DHT22;39320;53.214;6.556;2023-12-20T01:02:02;7.00;99.90
51908;DHT22;39320;53.214;6.556;2023-12-20T01:04:28;7.00;99.90
51908;DHT22;39320;53.214;6.556;2023-12-20T01:06:53;7.00;99.90
51908;DHT22;39320;53.214;6.556;2023-12-20T01:09:19;7.00;99.90
51908;DHT22;39320;53.214;6.556;2023-12-20T01:11:45;7.00;99.90
51908;DHT22;39320;53.214;6.556;2023-12-20T01:14:14;7.00;99.90
51908;DHT22;39320;53.214;6.556;2023-12-20T01:16:40;7.00;99.90
51908;DHT22;39320;53.214;6.556;2023-12-20T01:19:05;7.00;99.90
51908;DHT22;39320;53.214;6.556;2023-12-20T01:21:32;7.00;99.90
51908;DHT22;39320;53.214;6.556;2023-12-20T01:23:57;7.00;99.90
51908;DHT22;39320;53.214;6.556;2023-12-20T01:26:23;7.00;99.90
51908;DHT22;39320;53.214;6.556;2023-12-20T01:28:49;7.00;99.90
51908;DHT22;39320;53.214;6.556;2023-12-20T01:31:15;7.00;99.90
51908;DHT22;39320;53.214;6.556;2023-12-20T01:33:40;7.00;99.90
51908;DHT22;39320;53.214;6.556;2023-12-20T01:36:06;7.00;99.90
51908;DHT22;39320;53.214;6.556;2023-12-20T01:38:32;7.00;99.90
51908;DHT22;39320;53.214;6.556;2023-12-20T01:40:58;7.00;99.90
51908;DHT22;39320;53.214;6.556;2023-12-20T01:43:24;7.00;99.90
51908;DHT22;39320;53.214;6.556;2023-12-20T01:45:50;7.00;99.90
51908;DHT22;39320;53.214;6.556;2023-12-20T01:48:18;7.10;99.90
51908;DHT22;39320;53.214;6.556;2023-12-20T01:50:45;7.10;99.90
51908;DHT22;39320;53.214;6.556;2023-12-20T01:53:12;7.10;99.90
51908;DHT22;39320;53.214;6.556;2023-12-20T01:55:41;7.10;99.90
51908;DHT22;39320;53.214;6.556;2023-12-20T01:58:08;7.10;99.90
51908;DHT22;39320;53.214;6.556;2023-12-20T02:00:36;7.10;99.90
51908;DHT22;39320;53.214;6.556;2023-12-20T02:03:03;7.10;99.90
51908;DHT22;39320;53.214;6.556;2023-12-20T02:05:33;7.10;99.90
51908;DHT22;39320;53.214;6.556;2023-12-20T02:07:59;7.10;99.90
51908;DHT22;39320;53.214;6.556;2023-12-20T02:10:25;7.10;99.90
51908;DHT22;39320;53.214;6.556;2023-12-20T02:12:51;7.20;99.90
51908;DHT22;39320;53.214;6.556;2023-12-20T02:15:17;7.20;99.90
51908;DHT22;39320;53.214;6.556;2023-12-20T02:17:43;7.10;99.90
51908;DHT22;39320;53.214;6.556;2023-12-20T02:20:09;7.20;99.90
51908;DHT22;39320;53.214;6.556;2023-12-20T02:22:35;7.20;99.90
51908;DHT22;39320;53.214;6.556;2023-12-20T02:25:01;7.10;99.90
51908;DHT22;39320;53.214;6.556;2023-12-20T02:27:27;7.10;99.90
51908;DHT22;39320;53.214;6.556;2023-12-20T02:29:53;7.10;99.90
51908;DHT22;39320;53.214;6.556;2023-12-20T02:32:19;7.00;99.90
51908;DHT22;39320;53.214;6.556;2023-12-20T02:34:47;7.00;99.90
51908;DHT22;39320;53.214;6.556;2023-12-20T02:37:13;7.00;99.90
51908;DHT22;39320;53.214;6.556;2023-12-20T02:39:39;7.00;99.90
51908;DHT22;39320;53.214;6.556;2023-12-20T02:42:04;7.00;99.90
51908;DHT22;39320;53.214;6.556;2023-12-20T02:44:30;7.00;99.90
51908;DHT22;39320;53.214;6.556;2023-12-20T02:46:56;7.10;99.90
51908;DHT22;39320;53.214;6.556;2023-12-20T02:49:22;7.10;99.90
51908;DHT22;39320;53.214;6.556;2023-12-20T02:51:47;7.10;99.90
51908;DHT22;39320;53.214;6.556;2023-12-20T02:54:13;7.20;99.90
51908;DHT22;39320;53.214;6.556;2023-12-20T02:56:39;7.20;99.90
51908;DHT22;39320;53.214;6.556;2023-12-20T02:59:05;7.20;99.90
51908;DHT22;39320;53.214;6.556;2023-12-20T03:01:31;7.30;99.90
51908;DHT22;39320;53.214;6.556;2023-12-20T03:03:57;7.30;99.90
51908;DHT22;39320;53.214;6.556;2023-12-20T03:06:23;7.20;99.90
51908;DHT22;39320;53.214;6.556;2023-12-20T03:08:49;7.20;99.90
51908;DHT22;39320;53.214;6.556;2023-12-20T03:11:15;7.20;99.90
51908;DHT22;39320;53.214;6.556;2023-12-20T03:13:40;7.20;99.90
51908;DHT22;39320;53.214;6.556;2023-12-20T03:16:10;7.20;99.90
51908;DHT22;39320;53.214;6.556;2023-12-20T03:18:36;7.20;99.90
51908;DHT22;39320;53.214;6.556;2023-12-20T03:21:02;7.30;99.90
51908;DHT22;39320;53.214;6.556;2023-12-20T03:23:28;7.20;99.90
51908;DHT22;39320;53.214;6.556;2023-12-20T03:25:56;7.30;99.90
51908;DHT22;39320;53.214;6.556;2023-12-20T03:28:22;7.30;99.90
51908;DHT22;39320;53.214;6.556;2023-12-20T03:30:48;7.30;99.90
51908;DHT22;39320;53.214;6.556;2023-12-20T03:33:14;7.30;99.90
51908;DHT22;39320;53.214;6.556;2023-12-20T03:35:40;7.30;99.90
51908;DHT22;39320;53.214;6.556;2023-12-20T03:38:06;7.40;99.90
51908;DHT22;39320;53.214;6.556;2023-12-20T03:40:31;7.40;99.90
51908;DHT22;39320;53.214;6.556;2023-12-20T03:42:57;7.40;99.90
51908;DHT22;39320;53.214;6.556;2023-12-20T03:45:23;7.40;99.90
51908;DHT22;39320;53.214;6.556;2023-12-20T03:47:48;7.40;99.90
51908;DHT22;39320;53.214;6.556;2023-12-20T03:50:15;7.40;99.90
51908;DHT22;39320;53.214;6.556;2023-12-20T03:52:41;7.40;99.90
51908;DHT22;39320;53.214;6.556;2023-12-20T03:55:07;7.50;99.90
51908;DHT22;39320;53.214;6.556;2023-12-20T03:57:32;7.50;99.90
51908;DHT22;39320;53.214;6.556;2023-12-20T03:59:58;7.50;99.90
51908;DHT22;39320;53.214;6.556;2023-12-20T04:02:24;7.50;99.90
51908;DHT22;39320;53.214;6.556;2023-12-20T04:04:50;7.50;99.90
51908;DHT22;39320;53.214;6.556;2023-12-20T04:07:18;7.50;99.90
51908;DHT22;39320;53.214;6.556;2023-12-20T04:09:44;7.50;99.90
51908;DHT22;39320;53.214;6.556;2023-12-20T04:12:10;7.40;99.90
51908;DHT22;39320;53.214;6.556;2023-12-20T04:14:35;7.50;99.90
51908;DHT22;39320;53.214;6.556;2023-12-20T04:17:01;7.40;99.90
51908;DHT22;39320;53.214;6.556;2023-12-20T04:19:27;7.40;99.90
51908;DHT22;39320;53.214;6.556;2023-12-20T04:21:52;7.40;99.90
51908;DHT22;39320;53.214;6.556;2023-12-20T04:24:18;7.40;99.90
51908;DHT22;39320;53.214;6.556;2023-12-20T04:26:44;7.40;99.90
51908;DHT22;39320;53.214;6.556;2023-12-20T04:29:09;7.40;99.90
51908;DHT22;39320;53.214;6.556;2023-12-20T04:31:35;7.40;99.90
51908;DHT22;39320;53.214;6.556;2023-12-20T04:34:01;7.50;99.90
51908;DHT22;39320;53.214;6.556;2023-12-20T04:36:27;7.50;99.90
51908;DHT22;39320;53.214;6.556;2023-12-20T04:38:53;7.50;99.90
51908;DHT22;39320;53.214;6.556;2023-12-20T04:41:19;7.60;99.90
51908;DHT22;39320;53.214;6.556;2023-12-20T04:43:45;7.60;99.90
51908;DHT22;39320;53.214;6.556;2023-12-20T04:46:10;7.60;99.90
51908;DHT22;39320;53.214;6.556;2023-12-20T04:48:36;7.60;99.90
51908;DHT22;39320;53.214;6.556;2023-12-20T04:51:02;7.70;99.90
51908;DHT22;39320;53.214;6.556;2023-12-20T04:53:28;7.60;99.90
51908;DHT22;39320;53.214;6.556;2023-12-20T04:55:54;7.70;99.90
51908;DHT22;39320;53.214;6.556;2023-12-20T04:58:19;7.70;99.90
51908;DHT22;39320;53.214;6.556;2023-12-20T05:00:45;7.70;99.90
51908;DHT22;39320;53.214;6.556;2023-12-20T05:03:11;7.70;99.90
51908;DHT22;39320;53.214;6.556;2023-12-20T05:05:37;7.70;99.90
51908;DHT22;39320;53.214;6.556;2023-12-20T05:08:03;7.70;99.90
51908;DHT22;39320;53.214;6.556;2023-12-20T05:10:29;7.70;99.90
51908;DHT22;39320;53.214;6.556;2023-12-20T05:12:55;7.80;99.90
51908;DHT22;39320;53.214;6.556;2023-12-20T05:15:21;7.80;99.90
51908;DHT22;39320;53.214;6.556;2023-12-20T05:17:46;7.90;99.90
51908;DHT22;39320;53.214;6.556;2023-12-20T05:20:12;7.80;99.90
51908;DHT22;39320;53.214;6.556;2023-12-20T05:22:38;7.80;99.90
51908;DHT22;39320;53.214;6.556;2023-12-20T05:25:04;7.80;99.90
51908;DHT22;39320;53.214;6.556;2023-12-20T05:27:30;7.80;99.90
51908;DHT22;39320;53.214;6.556;2023-12-20T05:29:55;7.80;99.90
51908;DHT22;39320;53.214;6.556;2023-12-20T05:32:23;7.80;99.90
51908;DHT22;39320;53.214;6.556;2023-12-20T05:34:49;7.80;99.90
51908;DHT22;39320;53.214;6.556;2023-12-20T05:37:15;7.80;99.90
51908;DHT22;39320;53.214;6.556;2023-12-20T05:39:40;7.80;99.90
51908;DHT22;39320;53.214;6.556;2023-12-20T05:42:06;7.90;99.90
51908;DHT22;39320;53.214;6.556;2023-12-20T05:44:32;7.90;99.90
51908;DHT22;39320;53.214;6.556;2023-12-20T05:46:57;7.90;99.90
51908;DHT22;39320;53.214;6.556;2023-12-20T05:49:23;7.90;99.90
51908;DHT22;39320;53.214;6.556;2023-12-20T05:51:49;7.80;99.90
51908;DHT22;39320;53.214;6.556;2023-12-20T05:54:16;7.90;99.90
51908;DHT22;39320;53.214;6.556;2023-12-20T05:56:42;7.90;99.90
51908;DHT22;39320;53.214;6.556;2023-12-20T05:59:08;7.80;99.90
51908;DHT22;39320;53.214;6.556;2023-12-20T06:01:33;7.90;99.90
51908;DHT22;39320;53.214;6.556;2023-12-20T06:03:59;7.90;99.90
51908;DHT22;39320;53.214;6.556;2023-12-20T06:06:25;7.90;99.90
51908;DHT22;39320;53.214;6.556;2023-12-20T06:08:53;7.90;99.90
51908;DHT22;39320;53.214;6.556;2023-12-20T06:11:18;7.90;99.90
51908;DHT22;39320;53.214;6.556;2023-12-20T06:13:44;7.90;99.90
51908;DHT22;39320;53.214;6.556;2023-12-20T06:16:10;7.90;99.90
51908;DHT22;39320;53.214;6.556;2023-12-20T06:18:35;7.90;99.90
51908;DHT22;39320;53.214;6.556;2023-12-20T06:21:02;8.00;99.90
51908;DHT22;39320;53.214;6.556;2023-12-20T06:23:28;8.00;99.90
51908;DHT22;39320;53.214;6.556;2023-12-20T06:25:54;8.00;99.90
51908;DHT22;39320;53.214;6.556;2023-12-20T06:28:22;8.00;99.90
51908;DHT22;39320;53.214;6.556;2023-12-20T06:30:47;8.00;99.90
51908;DHT22;39320;53.214;6.556;2023-12-20T06:33:14;8.00;99.90
51908;DHT22;39320;53.214;6.556;2023-12-20T06:35:40;8.20;99.90
51908;DHT22;39320;53.214;6.556;2023-12-20T06:38:06;8.00;99.90
51908;DHT22;39320;53.214;6.556;2023-12-20T06:40:32;8.00;99.90
51908;DHT22;39320;53.214;6.556;2023-12-20T06:42:57;8.10;99.90
51908;DHT22;39320;53.214;6.556;2023-12-20T06:45:25;8.10;99.90
51908;DHT22;39320;53.214;6.556;2023-12-20T06:47:51;8.00;99.90
51908;DHT22;39320;53.214;6.556;2023-12-20T06:50:16;8.00;99.90
51908;DHT22;39320;53.214;6.556;2023-12-20T06:52:42;8.10;99.90
51908;DHT22;39320;53.214;6.556;2023-12-20T06:55:08;8.10;99.90
51908;DHT22;39320;53.214;6.556;2023-12-20T06:57:34;8.10;99.90
51908;DHT22;39320;53.214;6.556;2023-12-20T07:00:02;8.20;99.90
51908;DHT22;39320;53.214;6.556;2023-12-20T07:02:28;8.10;99.90
51908;DHT22;39320;53.214;6.556;2023-12-20T07:04:56;8.20;99.90
51908;DHT22;39320;53.214;6.556;2023-12-20T07:07:21;8.20;99.90
51908;DHT22;39320;53.214;6.556;2023-12-20T07:09:50;8.20;99.90
51908;DHT22;39320;53.214;6.556;2023-12-20T07:12:15;8.20;99.90
51908;DHT22;39320;53.214;6.556;2023-12-20T07:14:41;8.30;99.90
51908;DHT22;39320;53.214;6.556;2023-12-20T07:17:07;8.20;99.90
51908;DHT22;39320;53.214;6.556;2023-12-20T07:19:37;8.20;99.90
51908;DHT22;39320;53.214;6.556;2023-12-20T07:22:04;8.20;99.90
51908;DHT22;39320;53.214;6.556;2023-12-20T07:24:30;8.30;99.90
51908;DHT22;39320;53.214;6.556;2023-12-20T07:26:55;8.30;99.90
51908;DHT22;39320;53.214;6.556;2023-12-20T07:29:21;8.30;99.90
51908;DHT22;39320;53.214;6.556;2023-12-20T07:31:47;8.30;99.90
51908;DHT22;39320;53.214;6.556;2023-12-20T07:34:12;8.30;99.90
51908;DHT22;39320;53.214;6.556;2023-12-20T07:36:38;8.30;99.90
51908;DHT22;39320;53.214;6.556;2023-12-20T07:39:04;8.30;99.90
51908;DHT22;39320;53.214;6.556;2023-12-20T07:41:30;8.40;99.90
51908;DHT22;39320;53.214;6.556;2023-12-20T07:43:56;8.30;99.90
51908;DHT22;39320;53.214;6.556;2023-12-20T07:46:22;8.40;99.90
51908;DHT22;39320;53.214;6.556;2023-12-20T07:48:50;8.40;99.90
51908;DHT22;39320;53.214;6.556;2023-12-20T07:51:16;8.50;99.90
51908;DHT22;39320;53.214;6.556;2023-12-20T07:53:42;8.40;99.90
51908;DHT22;39320;53.214;6.556;2023-12-20T07:56:15;8.40;99.90
51908;DHT22;39320;53.214;6.556;2023-12-20T07:58:41;8.40;99.90
51908;DHT22;39320;53.214;6.556;2023-12-20T08:01:06;8.40;99.90
51908;DHT22;39320;53.214;6.556;2023-12-20T08:03:32;8.40;99.90
51908;DHT22;39320;53.214;6.556;2023-12-20T08:05:57;8.50;99.90
51908;DHT22;39320;53.214;6.556;2023-12-20T08:08:25;8.40;99.90
51908;DHT22;39320;53.214;6.556;2023-12-20T08:10:50;8.40;99.90
51908;DHT22;39320;53.214;6.556;2023-12-20T08:13:16;8.40;99.90
51908;DHT22;39320;53.214;6.556;2023-12-20T08:15:42;8.40;99.90
51908;DHT22;39320;53.214;6.556;2023-12-20T08:18:08;8.40;99.90
51908;DHT22;39320;53.214;6.556;2023-12-20T08:20:33;8.40;99.90
51908;DHT22;39320;53.214;6.556;2023-12-20T08:22:59;8.40;99.90
51908;DHT22;39320;53.214;6.556;2023-12-20T08:25:26;8.40;99.90
51908;DHT22;39320;53.214;6.556;2023-12-20T08:27:53;8.40;99.90
51908;DHT22;39320;53.214;6.556;2023-12-20T08:30:18;8.40;99.90
51908;DHT22;39320;53.214;6.556;2023-12-20T08:32:48;8.40;99.90
51908;DHT22;39320;53.214;6.556;2023-12-20T08:35:14;8.40;99.90
51908;DHT22;39320;53.214;6.556;2023-12-20T08:37:39;8.40;99.90
51908;DHT22;39320;53.214;6.556;2023-12-20T08:40:05;8.40;99.90
51908;DHT22;39320;53.214;6.556;2023-12-20T08:42:31;8.40;99.90
51908;DHT22;39320;53.214;6.556;2023-12-20T08:44:58;8.40;99.90
51908;DHT22;39320;53.214;6.556;2023-12-20T08:47:24;8.20;99.90
51908;DHT22;39320;53.214;6.556;2023-12-20T08:49:50;8.00;99.90
51908;DHT22;39320;53.214;6.556;2023-12-20T08:52:16;7.80;99.90
51908;DHT22;39320;53.214;6.556;2023-12-20T08:54:42;7.60;99.90
51908;DHT22;39320;53.214;6.556;2023-12-20T08:57:07;7.50;99.90
51908;DHT22;39320;53.214;6.556;2023-12-20T08:59:33;7.50;99.90
51908;DHT22;39320;53.214;6.556;2023-12-20T09:01:59;7.20;99.90
51908;DHT22;39320;53.214;6.556;2023-12-20T09:04:25;7.20;99.90
51908;DHT22;39320;53.214;6.556;2023-12-20T09:06:51;7.10;99.90
51908;DHT22;39320;53.214;6.556;2023-12-20T09:09:16;7.00;99.90
51908;DHT22;39320;53.214;6.556;2023-12-20T09:11:42;6.90;99.90
51908;DHT22;39320;53.214;6.556;2023-12-20T09:14:08;6.90;99.90
51908;DHT22;39320;53.214;6.556;2023-12-20T09:16:34;6.90;99.90
51908;DHT22;39320;53.214;6.556;2023-12-20T09:19:00;6.90;99.90
51908;DHT22;39320;53.214;6.556;2023-12-20T09:21:26;6.90;99.90
51908;DHT22;39320;53.214;6.556;2023-12-20T09:23:52;6.90;99.90
51908;DHT22;39320;53.214;6.556;2023-12-20T09:26:17;7.00;99.90
51908;DHT22;39320;53.214;6.556;2023-12-20T09:28:44;6.90;99.90
51908;DHT22;39320;53.214;6.556;2023-12-20T09:31:09;6.90;99.90
51908;DHT22;39320;53.214;6.556;2023-12-20T09:33:35;6.90;99.90
51908;DHT22;39320;53.214;6.556;2023-12-20T09:36:01;6.90;99.90
51908;DHT22;39320;53.214;6.556;2023-12-20T09:38:26;6.90;99.90
51908;DHT22;39320;53.214;6.556;2023-12-20T09:40:52;7.00;99.90
51908;DHT22;39320;53.214;6.556;2023-12-20T09:43:20;6.90;99.90
51908;DHT22;39320;53.214;6.556;2023-12-20T09:45:48;7.00;99.90
51908;DHT22;39320;53.214;6.556;2023-12-20T09:48:18;7.00;99.90
51908;DHT22;39320;53.214;6.556;2023-12-20T09:50:44;7.00;99.90
51908;DHT22;39320;53.214;6.556;2023-12-20T09:53:14;7.00;99.90
51908;DHT22;39320;53.214;6.556;2023-12-20T09:55:41;7.00;99.90
51908;DHT22;39320;53.214;6.556;2023-12-20T09:58:08;7.00;99.90
51908;DHT22;39320;53.214;6.556;2023-12-20T10:00:37;7.30;99.90
51908;DHT22;39320;53.214;6.556;2023-12-20T10:03:03;7.10;99.90
51908;DHT22;39320;53.214;6.556;2023-12-20T10:05:32;7.10;99.90
51908;DHT22;39320;53.214;6.556;2023-12-20T10:07:59;7.10;99.90
51908;DHT22;39320;53.214;6.556;2023-12-20T10:10:25;7.10;99.90
51908;DHT22;39320;53.214;6.556;2023-12-20T10:13:08;7.10;99.90
51908;DHT22;39320;53.214;6.556;2023-12-20T10:15:34;7.20;99.90
51908;DHT22;39320;53.214;6.556;2023-12-20T10:18:04;7.20;99.90
51908;DHT22;39320;53.214;6.556;2023-12-20T10:20:31;7.20;99.90
51908;DHT22;39320;53.214;6.556;2023-12-20T10:23:00;7.40;99.90
51908;DHT22;39320;53.214;6.556;2023-12-20T10:25:27;7.30;99.90
51908;DHT22;39320;53.214;6.556;2023-12-20T10:28:12;7.30;99.90
51908;DHT22;39320;53.214;6.556;2023-12-20T10:30:39;7.30;99.90
51908;DHT22;39320;53.214;6.556;2023-12-20T10:33:06;7.40;99.90
51908;DHT22;39320;53.214;6.556;2023-12-20T10:35:36;7.40;99.90
51908;DHT22;39320;53.214;6.556;2023-12-20T10:38:06;7.60;99.90
51908;DHT22;39320;53.214;6.556;2023-12-20T10:40:36;7.50;99.90
51908;DHT22;39320;53.214;6.556;2023-12-20T10:43:03;7.50;99.90
51908;DHT22;39320;53.214;6.556;2023-12-20T10:45:28;7.50;99.90
51908;DHT22;39320;53.214;6.556;2023-12-20T10:47:56;7.60;99.90
51908;DHT22;39320;53.214;6.556;2023-12-20T10:50:25;7.60;99.90
51908;DHT22;39320;53.214;6.556;2023-12-20T10:52:52;7.60;99.90
51908;DHT22;39320;53.214;6.556;2023-12-20T10:55:24;7.60;99.90
51908;DHT22;39320;53.214;6.556;2023-12-20T10:57:51;7.60;99.90
51908;DHT22;39320;53.214;6.556;2023-12-20T11:00:18;7.60;99.90
51908;DHT22;39320;53.214;6.556;2023-12-20T11:02:44;7.60;99.90
51908;DHT22;39320;53.214;6.556;2023-12-20T11:05:33;7.60;99.90
51908;DHT22;39320;53.214;6.556;2023-12-20T11:08:11;7.60;99.90
51908;DHT22;39320;53.214;6.556;2023-12-20T11:13:21;7.70;99.90
51908;DHT22;39320;53.214;6.556;2023-12-20T11:15:49;7.70;99.90
51908;DHT22;39320;53.214;6.556;2023-12-20T11:18:15;7.70;99.90
51908;DHT22;39320;53.214;6.556;2023-12-20T11:20:42;7.70;99.90
51908;DHT22;39320;53.214;6.556;2023-12-20T11:23:08;7.70;99.90
51908;DHT22;39320;53.214;6.556;2023-12-20T11:25:49;7.70;99.90
51908;DHT22;39320;53.214;6.556;2023-12-20T11:28:21;7.70;99.90
51908;DHT22;39320;53.214;6.556;2023-12-20T11:30:53;7.70;99.90
51908;DHT22;39320;53.214;6.556;2023-12-20T11:33:23;7.70;99.90
51908;DHT22;39320;53.214;6.556;2023-12-20T11:35:52;7.80;99.90
51908;DHT22;39320;53.214;6.556;2023-12-20T11:38:20;7.80;99.90
51908;DHT22;39320;53.214;6.556;2023-12-20T11:40:49;8.00;99.90
51908;DHT22;39320;53.214;6.556;2023-12-20T11:43:37;7.80;99.90
51908;DHT22;39320;53.214;6.556;2023-12-20T11:46:08;7.90;99.90
51908;DHT22;39320;53.214;6.556;2023-12-20T11:48:36;7.90;99.90
51908;DHT22;39320;53.214;6.556;2023-12-20T11:51:02;7.90;99.90
51908;DHT22;39320;53.214;6.556;2023-12-20T11:53:29;7.90;99.90
51908;DHT22;39320;53.214;6.556;2023-12-20T11:55:57;7.90;99.90
51908;DHT22;39320;53.214;6.556;2023-12-20T11:58:23;7.90;99.90
51908;DHT22;39320;53.214;6.556;2023-12-20T12:00:50;7.90;99.90
51908;DHT22;39320;53.214;6.556;2023-12-20T12:03:16;8.10;99.90
51908;DHT22;39320;53.214;6.556;2023-12-20T12:05:42;7.90;99.90
51908;DHT22;39320;53.214;6.556;2023-12-20T12:08:07;7.90;99.90
51908;DHT22;39320;53.214;6.556;2023-12-20T12:10:33;7.90;99.90
51908;DHT22;39320;53.214;6.556;2023-12-20T12:12:59;7.90;99.90
51908;DHT22;39320;53.214;6.556;2023-12-20T12:15:26;7.90;99.90
51908;DHT22;39320;53.214;6.556;2023-12-20T12:17:56;7.90;99.90
51908;DHT22;39320;53.214;6.556;2023-12-20T12:20:22;7.90;99.90
51908;DHT22;39320;53.214;6.556;2023-12-20T12:23:06;7.90;99.90
51908;DHT22;39320;53.214;6.556;2023-12-20T12:25:34;7.90;99.90
51908;DHT22;39320;53.214;6.556;2023-12-20T12:28:01;7.90;99.90
51908;DHT22;39320;53.214;6.556;2023-12-20T12:30:27;7.90;99.90
51908;DHT22;39320;53.214;6.556;2023-12-20T12:32:53;7.90;99.90
51908;DHT22;39320;53.214;6.556;2023-12-20T12:35:19;7.90;99.90
51908;DHT22;39320;53.214;6.556;2023-12-20T12:37:45;7.90;99.90
51908;DHT22;39320;53.214;6.556;2023-12-20T12:40:16;7.90;99.90
51908;DHT22;39320;53.214;6.556;2023-12-20T12:42:43;8.00;99.90
51908;DHT22;39320;53.214;6.556;2023-12-20T12:45:09;7.90;99.90
51908;DHT22;39320;53.214;6.556;2023-12-20T12:47:37;8.00;99.90
51908;DHT22;39320;53.214;6.556;2023-12-20T12:50:03;8.00;99.90
51908;DHT22;39320;53.214;6.556;2023-12-20T12:52:30;8.00;99.90
51908;DHT22;39320;53.214;6.556;2023-12-20T12:54:56;7.90;99.90
51908;DHT22;39320;53.214;6.556;2023-12-20T12:57:22;8.00;99.90
51908;DHT22;39320;53.214;6.556;2023-12-20T12:59:49;8.00;99.90
51908;DHT22;39320;53.214;6.556;2023-12-20T13:02:15;8.00;99.90
51908;DHT22;39320;53.214;6.556;2023-12-20T13:04:41;8.60;99.90
51908;DHT22;39320;53.214;6.556;2023-12-20T13:07:08;8.00;99.90
51908;DHT22;39320;53.214;6.556;2023-12-20T13:09:36;8.10;99.90
51908;DHT22;39320;53.214;6.556;2023-12-20T13:12:02;8.00;99.90
51908;DHT22;39320;53.214;6.556;2023-12-20T13:14:31;8.00;99.90
51908;DHT22;39320;53.214;6.556;2023-12-20T13:16:57;8.10;99.90
51908;DHT22;39320;53.214;6.556;2023-12-20T13:19:23;8.00;99.90
51908;DHT22;39320;53.214;6.556;2023-12-20T13:21:49;8.00;99.90
51908;DHT22;39320;53.214;6.556;2023-12-20T13:24:15;8.00;99.90
51908;DHT22;39320;53.214;6.556;2023-12-20T13:26:40;8.00;99.90
51908;DHT22;39320;53.214;6.556;2023-12-20T13:29:06;8.00;99.90
51908;DHT22;39320;53.214;6.556;2023-12-20T13:31:32;7.90;99.90
51908;DHT22;39320;53.214;6.556;2023-12-20T13:33:58;7.90;99.90
51908;DHT22;39320;53.214;6.556;2023-12-20T13:36:23;8.00;99.90
51908;DHT22;39320;53.214;6.556;2023-12-20T13:38:49;7.90;99.90
51908;DHT22;39320;53.214;6.556;2023-12-20T13:41:15;7.80;99.90
51908;DHT22;39320;53.214;6.556;2023-12-20T13:43:41;7.80;99.90
51908;DHT22;39320;53.214;6.556;2023-12-20T13:46:08;7.80;99.90
51908;DHT22;39320;53.214;6.556;2023-12-20T13:48:34;8.00;99.90
51908;DHT22;39320;53.214;6.556;2023-12-20T13:51:00;7.80;99.90
51908;DHT22;39320;53.214;6.556;2023-12-20T13:53:28;7.80;99.90
51908;DHT22;39320;53.214;6.556;2023-12-20T13:55:54;7.70;99.90
51908;DHT22;39320;53.214;6.556;2023-12-20T13:58:19;7.70;99.90
51908;DHT22;39320;53.214;6.556;2023-12-20T14:00:45;7.00;99.90
51908;DHT22;39320;53.214;6.556;2023-12-20T14:03:11;7.70;99.90
51908;DHT22;39320;53.214;6.556;2023-12-20T14:05:37;7.70;99.90
51908;DHT22;39320;53.214;6.556;2023-12-20T14:08:03;7.60;99.90
51908;DHT22;39320;53.214;6.556;2023-12-20T14:10:29;7.60;99.90
51908;DHT22;39320;53.214;6.556;2023-12-20T14:12:55;7.60;99.90
51908;DHT22;39320;53.214;6.556;2023-12-20T14:15:21;7.60;99.90
51908;DHT22;39320;53.214;6.556;2023-12-20T14:17:50;7.60;99.90
51908;DHT22;39320;53.214;6.556;2023-12-20T14:20:16;7.90;99.90
51908;DHT22;39320;53.214;6.556;2023-12-20T14:22:43;7.50;99.90
51908;DHT22;39320;53.214;6.556;2023-12-20T14:25:15;7.50;99.90
51908;DHT22;39320;53.214;6.556;2023-12-20T14:27:42;8.40;99.90
51908;DHT22;39320;53.214;6.556;2023-12-20T14:30:11;7.50;99.90
51908;DHT22;39320;53.214;6.556;2023-12-20T14:32:39;7.50;99.90
51908;DHT22;39320;53.214;6.556;2023-12-20T14:35:05;7.50;99.90
51908;DHT22;39320;53.214;6.556;2023-12-20T14:37:32;7.50;99.90
51908;DHT22;39320;53.214;6.556;2023-12-20T14:39:58;7.50;99.90
51908;DHT22;39320;53.214;6.556;2023-12-20T14:42:24;7.50;99.90
51908;DHT22;39320;53.214;6.556;2023-12-20T14:44:49;7.50;99.90
51908;DHT22;39320;53.214;6.556;2023-12-20T14:47:17;7.50;99.90
51908;DHT22;39320;53.214;6.556;2023-12-20T14:49:43;7.50;99.90
51908;DHT22;39320;53.214;6.556;2023-12-20T14:52:09;7.50;99.90
51908;DHT22;39320;53.214;6.556;2023-12-20T14:54:37;7.50;99.90
51908;DHT22;39320;53.214;6.556;2023-12-20T14:57:03;7.40;99.90
51908;DHT22;39320;53.214;6.556;2023-12-20T14:59:29;7.40;99.90
51908;DHT22;39320;53.214;6.556;2023-12-20T15:01:55;7.80;99.90
51908;DHT22;39320;53.214;6.556;2023-12-20T15:04:21;7.50;99.90
51908;DHT22;39320;53.214;6.556;2023-12-20T15:06:56;7.40;99.90
51908;DHT22;39320;53.214;6.556;2023-12-20T15:09:23;7.40;99.90
51908;DHT22;39320;53.214;6.556;2023-12-20T15:11:50;7.40;99.90
51908;DHT22;39320;53.214;6.556;2023-12-20T15:14:16;7.50;99.90
51908;DHT22;39320;53.214;6.556;2023-12-20T15:16:45;7.40;99.90
51908;DHT22;39320;53.214;6.556;2023-12-20T15:19:12;7.30;99.90
51908;DHT22;39320;53.214;6.556;2023-12-20T15:21:37;7.30;99.90
51908;DHT22;39320;53.214;6.556;2023-12-20T15:24:08;7.30;99.90
51908;DHT22;39320;53.214;6.556;2023-12-20T15:26:41;7.50;99.90
51908;DHT22;39320;53.214;6.556;2023-12-20T15:29:07;7.40;99.90
51908;DHT22;39320;53.214;6.556;2023-12-20T15:31:35;7.50;99.90
51908;DHT22;39320;53.214;6.556;2023-12-20T15:34:02;7.30;99.90
51908;DHT22;39320;53.214;6.556;2023-12-20T15:36:28;7.30;99.90
51908;DHT22;39320;53.214;6.556;2023-12-20T15:38:53;7.20;99.90
51908;DHT22;39320;53.214;6.556;2023-12-20T15:41:20;7.20;99.90
51908;DHT22;39320;53.214;6.556;2023-12-20T15:43:46;7.20;99.90